sensor_id;sensor_type;location;lat;lon;timestamp;temperature;humidity
47590;DHT22;33316;52.298;9.056;2023-12-22T00:00:19;6.20;99.90
47590;DHT22;33316;52.298;9.056;2023-12-22T00:02:53;6.20;99.90
47590;DHT22;33316;52.298;9.056;2023-12-22T00:05:26;6.20;99.90
47590;DHT22;33316;52.298;9.056;2023-12-22T00:08:04;6.20;99.90
47590;DHT22;33316;52.298;9.056;2023-12-22T00:10:39;6.20;99.90
47590;DHT22;33316;52.298;9.056;2023-12-22T00:13:12;6.20;99.90
47590;DHT22;33316;52.298;9.056;2023-12-22T00:15:45;6.20;99.90
47590;DHT22;33316;52.298;9.056;2023-12-22T00:18:28;6.20;99.90
47590;DHT22;33316;52.298;9.056;2023-12-22T00:21:07;6.20;99.90
47590;DHT22;33316;52.298;9.056;2023-12-22T00:23:44;6.20;99.90
47590;DHT22;33316;52.298;9.056;2023-12-22T00:26:30;6.20;99.90
47590;DHT22;33316;52.298;9.056;2023-12-22T00:29:02;6.20;99.90
47590;DHT22;33316;52.298;9.056;2023-12-22T00:31:41;6.20;99.90
47590;DHT22;33316;52.298;9.056;2023-12-22T00:34:11;6.20;99.90
47590;DHT22;33316;52.298;9.056;2023-12-22T00:36:49;6.20;99.90
47590;DHT22;33316;52.298;9.056;2023-12-22T00:39:19;6.20;99.90
47590;DHT22;33316;52.298;9.056;2023-12-22T00:42:03;6.20;99.90
47590;DHT22;33316;52.298;9.056;2023-12-22T00:44:38;6.20;99.90
47590;DHT22;33316;52.298;9.056;2023-12-22T00:47:17;6.20;99.90
47590;DHT22;33316;52.298;9.056;2023-12-22T00:49:54;6.20;99.90
47590;DHT22;33316;52.298;9.056;2023-12-22T00:52:25;6.10;99.90
47590;DHT22;33316;52.298;9.056;2023-12-22T00:55:02;6.10;99.90
47590;DHT22;33316;52.298;9.056;2023-12-22T00:57:46;6.10;99.90
47590;DHT22;33316;52.298;9.056;2023-12-22T01:00:22;6.00;99.90
47590;DHT22;33316;52.298;9.056;2023-12-22T01:02:57;6.00;99.90
47590;DHT22;33316;52.298;9.056;2023-12-22T01:05:38;6.00;99.90
47590;DHT22;33316;52.298;9.056;2023-12-22T01:08:11;6.00;99.90
47590;DHT22;33316;52.298;9.056;2023-12-22T01:10:42;6.00;99.90
47590;DHT22;33316;52.298;9.056;2023-12-22T01:13:35;6.00;99.90
47590;DHT22;33316;52.298;9.056;2023-12-22T01:16:11;6.00;99.90
47590;DHT22;33316;52.298;9.056;2023-12-22T01:18:47;6.00;99.90
47590;DHT22;33316;52.298;9.056;2023-12-22T01:21:24;6.00;99.90
47590;DHT22;33316;52.298;9.056;2023-12-22T01:23:59;6.00;99.90
47590;DHT22;33316;52.298;9.056;2023-12-22T01:26:38;6.00;99.90
47590;DHT22;33316;52.298;9.056;2023-12-22T01:29:11;6.00;99.90
47590;DHT22;33316;52.298;9.056;2023-12-22T01:31:43;6.00;99.90
47590;DHT22;33316;52.298;9.056;2023-12-22T01:34:17;6.00;99.90
47590;DHT22;33316;52.298;9.056;2023-12-22T01:36:51;6.00;99.90
47590;DHT22;33316;52.298;9.056;2023-12-22T01:39:22;6.00;99.90
47590;DHT22;33316;52.298;9.056;2023-12-22T01:41:59;6.00;99.90
47590;DHT22;33316;52.298;9.056;2023-12-22T01:44:38;6.00;99.90
47590;DHT22;33316;52.298;9.056;2023-12-22T01:47:12;6.00;99.90
47590;DHT22;33316;52.298;9.056;2023-12-22T01:49:45;6.00;99.90
47590;DHT22;33316;52.298;9.056;2023-12-22T01:52:23;6.00;99.90
47590;DHT22;33316;52.298;9.056;2023-12-22T01:54:59;6.00;99.90
47590;DHT22;33316;52.298;9.056;2023-12-22T01:57:32;6.00;99.90
47590;DHT22;33316;52.298;9.056;2023-12-22T02:00:11;5.90;99.90
47590;DHT22;33316;52.298;9.056;2023-12-22T02:02:46;5.90;99.90
47590;DHT22;33316;52.298;9.056;2023-12-22T02:05:27;5.90;99.90
47590;DHT22;33316;52.298;9.056;2023-12-22T02:08:05;5.90;99.90
47590;DHT22;33316;52.298;9.056;2023-12-22T02:10:41;5.90;99.90
47590;DHT22;33316;52.298;9.056;2023-12-22T02:13:14;5.90;99.90
47590;DHT22;33316;52.298;9.056;2023-12-22T02:15:59;5.90;99.90
47590;DHT22;33316;52.298;9.056;2023-12-22T02:18:39;5.90;99.90
47590;DHT22;33316;52.298;9.056;2023-12-22T02:21:16;5.90;99.90
47590;DHT22;33316;52.298;9.056;2023-12-22T02:23:56;5.90;99.90
47590;DHT22;33316;52.298;9.056;2023-12-22T02:26:36;5.80;99.90
47590;DHT22;33316;52.298;9.056;2023-12-22T02:29:24;5.90;99.90
47590;DHT22;33316;52.298;9.056;2023-12-22T02:32:16;5.80;99.90
47590;DHT22;33316;52.298;9.056;2023-12-22T02:34:51;5.80;99.90
47590;DHT22;33316;52.298;9.056;2023-12-22T02:37:27;5.80;99.90
47590;DHT22;33316;52.298;9.056;2023-12-22T02:40:05;5.80;99.90
47590;DHT22;33316;52.298;9.056;2023-12-22T02:42:40;5.80;99.90
47590;DHT22;33316;52.298;9.056;2023-12-22T02:45:19;5.80;99.90
47590;DHT22;33316;52.298;9.056;2023-12-22T02:47:51;5.80;99.90
47590;DHT22;33316;52.298;9.056;2023-12-22T02:50:26;5.80;99.90
47590;DHT22;33316;52.298;9.056;2023-12-22T02:53:03;5.80;99.90
47590;DHT22;33316;52.298;9.056;2023-12-22T02:55:39;5.80;99.90
47590;DHT22;33316;52.298;9.056;2023-12-22T02:58:12;5.80;99.90
47590;DHT22;33316;52.298;9.056;2023-12-22T03:00:48;5.70;99.90
47590;DHT22;33316;52.298;9.056;2023-12-22T03:03:27;5.70;99.90
47590;DHT22;33316;52.298;9.056;2023-12-22T03:06:01;5.70;99.90
47590;DHT22;33316;52.298;9.056;2023-12-22T03:08:41;5.70;99.90
47590;DHT22;33316;52.298;9.056;2023-12-22T03:11:21;5.70;99.90
47590;DHT22;33316;52.298;9.056;2023-12-22T03:13:56;5.70;99.90
47590;DHT22;33316;52.298;9.056;2023-12-22T03:16:33;5.70;99.90
47590;DHT22;33316;52.298;9.056;2023-12-22T03:19:09;5.70;99.90
47590;DHT22;33316;52.298;9.056;2023-12-22T03:21:54;5.70;99.90
47590;DHT22;33316;52.298;9.056;2023-12-22T03:24:33;5.70;99.90
47590;DHT22;33316;52.298;9.056;2023-12-22T03:27:13;5.70;99.90
47590;DHT22;33316;52.298;9.056;2023-12-22T03:29:59;5.70;99.90
47590;DHT22;33316;52.298;9.056;2023-12-22T03:32:32;5.70;99.90
47590;DHT22;33316;52.298;9.056;2023-12-22T03:35:06;5.70;99.90
47590;DHT22;33316;52.298;9.056;2023-12-22T03:37:44;5.70;99.90
47590;DHT22;33316;52.298;9.056;2023-12-22T03:40:23;5.60;99.90
47590;DHT22;33316;52.298;9.056;2023-12-22T03:43:13;5.60;99.90
47590;DHT22;33316;52.298;9.056;2023-12-22T03:45:47;5.60;99.90
47590;DHT22;33316;52.298;9.056;2023-12-22T03:48:25;5.70;99.90
47590;DHT22;33316;52.298;9.056;2023-12-22T03:51:05;5.60;99.90
47590;DHT22;33316;52.298;9.056;2023-12-22T03:53:41;5.60;99.90
47590;DHT22;33316;52.298;9.056;2023-12-22T03:56:12;5.70;99.90
47590;DHT22;33316;52.298;9.056;2023-12-22T03:58:55;5.60;99.90
47590;DHT22;33316;52.298;9.056;2023-12-22T04:01:30;5.60;99.90
47590;DHT22;33316;52.298;9.056;2023-12-22T04:04:07;5.60;99.90
47590;DHT22;33316;52.298;9.056;2023-12-22T04:06:44;5.60;99.90
47590;DHT22;33316;52.298;9.056;2023-12-22T04:09:26;5.70;99.90
47590;DHT22;33316;52.298;9.056;2023-12-22T04:12:04;5.70;99.80
47590;DHT22;33316;52.298;9.056;2023-12-22T04:17:49;5.70;99.40
47590;DHT22;33316;52.298;9.056;2023-12-22T04:20:23;5.70;99.50
47590;DHT22;33316;52.298;9.056;2023-12-22T04:22:57;5.70;99.40
47590;DHT22;33316;52.298;9.056;2023-12-22T04:25:33;5.70;99.30
47590;DHT22;33316;52.298;9.056;2023-12-22T04:28:06;5.70;99.40
47590;DHT22;33316;52.298;9.056;2023-12-22T04:30:43;5.70;99.40
47590;DHT22;33316;52.298;9.056;2023-12-22T04:33:20;5.70;99.40
47590;DHT22;33316;52.298;9.056;2023-12-22T04:35:57;5.70;99.50
47590;DHT22;33316;52.298;9.056;2023-12-22T04:38:36;5.70;99.50
47590;DHT22;33316;52.298;9.056;2023-12-22T04:41:15;5.70;99.50
47590;DHT22;33316;52.298;9.056;2023-12-22T04:43:47;5.70;99.60
47590;DHT22;33316;52.298;9.056;2023-12-22T04:46:26;5.70;99.50
47590;DHT22;33316;52.298;9.056;2023-12-22T04:49:19;5.80;99.60
47590;DHT22;33316;52.298;9.056;2023-12-22T04:51:59;5.80;99.50
47590;DHT22;33316;52.298;9.056;2023-12-22T04:54:52;5.80;99.80
47590;DHT22;33316;52.298;9.056;2023-12-22T04:57:27;5.80;99.90
47590;DHT22;33316;52.298;9.056;2023-12-22T05:00:01;5.80;99.90
47590;DHT22;33316;52.298;9.056;2023-12-22T05:02:38;5.80;99.90
47590;DHT22;33316;52.298;9.056;2023-12-22T05:05:15;5.90;99.90
47590;DHT22;33316;52.298;9.056;2023-12-22T05:07:57;5.80;99.90
47590;DHT22;33316;52.298;9.056;2023-12-22T05:10:37;5.90;99.90
47590;DHT22;33316;52.298;9.056;2023-12-22T05:13:12;5.80;99.90
47590;DHT22;33316;52.298;9.056;2023-12-22T05:15:54;5.90;99.90
47590;DHT22;33316;52.298;9.056;2023-12-22T05:18:29;5.90;99.90
47590;DHT22;33316;52.298;9.056;2023-12-22T05:21:18;5.90;99.90
47590;DHT22;33316;52.298;9.056;2023-12-22T05:24:04;5.90;99.90
47590;DHT22;33316;52.298;9.056;2023-12-22T05:26:39;5.90;99.90
47590;DHT22;33316;52.298;9.056;2023-12-22T05:29:18;5.90;99.90
47590;DHT22;33316;52.298;9.056;2023-12-22T05:31:52;5.90;99.90
47590;DHT22;33316;52.298;9.056;2023-12-22T05:34:41;5.90;99.90
47590;DHT22;33316;52.298;9.056;2023-12-22T05:37:15;5.90;99.90
47590;DHT22;33316;52.298;9.056;2023-12-22T05:39:59;5.90;99.90
47590;DHT22;33316;52.298;9.056;2023-12-22T05:42:31;5.90;99.90
47590;DHT22;33316;52.298;9.056;2023-12-22T05:45:02;5.90;99.90
47590;DHT22;33316;52.298;9.056;2023-12-22T05:47:45;5.90;99.90
47590;DHT22;33316;52.298;9.056;2023-12-22T05:50:15;5.90;99.90
47590;DHT22;33316;52.298;9.056;2023-12-22T05:52:58;5.90;99.90
47590;DHT22;33316;52.298;9.056;2023-12-22T05:55:33;5.80;99.90
47590;DHT22;33316;52.298;9.056;2023-12-22T05:58:06;5.80;99.90
47590;DHT22;33316;52.298;9.056;2023-12-22T06:00:40;5.80;99.90
47590;DHT22;33316;52.298;9.056;2023-12-22T06:03:13;5.80;99.90
47590;DHT22;33316;52.298;9.056;2023-12-22T06:05:44;5.80;99.90
47590;DHT22;33316;52.298;9.056;2023-12-22T06:08:18;5.80;99.90
47590;DHT22;33316;52.298;9.056;2023-12-22T06:10:49;5.80;99.90
47590;DHT22;33316;52.298;9.056;2023-12-22T06:13:21;5.80;99.90
47590;DHT22;33316;52.298;9.056;2023-12-22T06:15:55;5.90;99.90
47590;DHT22;33316;52.298;9.056;2023-12-22T06:18:33;5.90;99.90
47590;DHT22;33316;52.298;9.056;2023-12-22T06:21:08;5.90;99.90
47590;DHT22;33316;52.298;9.056;2023-12-22T06:23:47;5.90;99.90
47590;DHT22;33316;52.298;9.056;2023-12-22T06:26:20;5.90;99.90
47590;DHT22;33316;52.298;9.056;2023-12-22T06:28:58;5.90;99.90
47590;DHT22;33316;52.298;9.056;2023-12-22T06:31:32;5.90;99.90
47590;DHT22;33316;52.298;9.056;2023-12-22T06:34:09;5.90;99.90
47590;DHT22;33316;52.298;9.056;2023-12-22T06:36:40;5.90;99.90
47590;DHT22;33316;52.298;9.056;2023-12-22T06:39:18;5.90;99.90
47590;DHT22;33316;52.298;9.056;2023-12-22T06:41:52;6.00;99.90
47590;DHT22;33316;52.298;9.056;2023-12-22T06:44:26;5.90;99.90
47590;DHT22;33316;52.298;9.056;2023-12-22T06:47:00;6.00;99.90
47590;DHT22;33316;52.298;9.056;2023-12-22T06:49:33;6.00;99.90
47590;DHT22;33316;52.298;9.056;2023-12-22T06:52:07;6.00;99.90
47590;DHT22;33316;52.298;9.056;2023-12-22T06:54:50;6.00;99.90
47590;DHT22;33316;52.298;9.056;2023-12-22T06:57:26;6.00;99.90
47590;DHT22;33316;52.298;9.056;2023-12-22T06:59:57;6.00;99.90
47590;DHT22;33316;52.298;9.056;2023-12-22T07:02:35;6.00;99.90
47590;DHT22;33316;52.298;9.056;2023-12-22T07:05:35;6.00;99.90
47590;DHT22;33316;52.298;9.056;2023-12-22T07:08:09;6.00;99.90
47590;DHT22;33316;52.298;9.056;2023-12-22T07:10:43;6.00;99.90
47590;DHT22;33316;52.298;9.056;2023-12-22T07:13:16;6.00;99.90
47590;DHT22;33316;52.298;9.056;2023-12-22T07:15:55;6.00;99.90
47590;DHT22;33316;52.298;9.056;2023-12-22T07:18:24;5.90;99.90
47590;DHT22;33316;52.298;9.056;2023-12-22T07:20:56;5.90;99.90
47590;DHT22;33316;52.298;9.056;2023-12-22T07:23:25;5.90;99.90
47590;DHT22;33316;52.298;9.056;2023-12-22T07:25:57;6.00;99.90
47590;DHT22;33316;52.298;9.056;2023-12-22T07:28:24;5.90;99.90
47590;DHT22;33316;52.298;9.056;2023-12-22T07:30:53;5.90;99.90
47590;DHT22;33316;52.298;9.056;2023-12-22T07:33:21;6.00;99.90
47590;DHT22;33316;52.298;9.056;2023-12-22T07:35:52;6.00;99.90
47590;DHT22;33316;52.298;9.056;2023-12-22T07:38:22;6.00;99.90
47590;DHT22;33316;52.298;9.056;2023-12-22T07:40:51;6.00;99.90
47590;DHT22;33316;52.298;9.056;2023-12-22T07:43:25;6.00;99.90
47590;DHT22;33316;52.298;9.056;2023-12-22T07:45:56;6.00;99.90
47590;DHT22;33316;52.298;9.056;2023-12-22T07:48:26;6.00;99.90
47590;DHT22;33316;52.298;9.056;2023-12-22T07:50:54;6.00;99.90
47590;DHT22;33316;52.298;9.056;2023-12-22T07:53:24;6.00;99.90
47590;DHT22;33316;52.298;9.056;2023-12-22T07:55:53;6.00;99.90
47590;DHT22;33316;52.298;9.056;2023-12-22T07:58:30;6.00;99.90
47590;DHT22;33316;52.298;9.056;2023-12-22T08:01:00;6.10;99.90
47590;DHT22;33316;52.298;9.056;2023-12-22T08:03:31;6.10;99.90
47590;DHT22;33316;52.298;9.056;2023-12-22T08:06:14;6.10;99.90
47590;DHT22;33316;52.298;9.056;2023-12-22T08:08:52;6.10;99.90
47590;DHT22;33316;52.298;9.056;2023-12-22T08:11:26;6.10;99.90
47590;DHT22;33316;52.298;9.056;2023-12-22T08:14:05;6.10;99.90
47590;DHT22;33316;52.298;9.056;2023-12-22T08:16:46;6.20;99.90
47590;DHT22;33316;52.298;9.056;2023-12-22T08:19:25;6.20;99.90
47590;DHT22;33316;52.298;9.056;2023-12-22T08:22:06;6.20;99.90
47590;DHT22;33316;52.298;9.056;2023-12-22T08:24:44;6.20;99.90
47590;DHT22;33316;52.298;9.056;2023-12-22T08:27:15;6.30;99.90
47590;DHT22;33316;52.298;9.056;2023-12-22T08:29:49;6.30;99.90
47590;DHT22;33316;52.298;9.056;2023-12-22T08:32:22;6.30;99.70
47590;DHT22;33316;52.298;9.056;2023-12-22T08:34:54;6.40;99.70
47590;DHT22;33316;52.298;9.056;2023-12-22T08:37:28;6.40;99.50
47590;DHT22;33316;52.298;9.056;2023-12-22T08:40:02;6.40;99.40
47590;DHT22;33316;52.298;9.056;2023-12-22T08:42:33;6.40;99.40
47590;DHT22;33316;52.298;9.056;2023-12-22T08:45:11;6.40;99.40
47590;DHT22;33316;52.298;9.056;2023-12-22T08:47:43;6.40;99.30
47590;DHT22;33316;52.298;9.056;2023-12-22T08:50:18;6.40;99.30
47590;DHT22;33316;52.298;9.056;2023-12-22T08:52:56;6.50;99.30
47590;DHT22;33316;52.298;9.056;2023-12-22T08:55:27;6.50;99.20
47590;DHT22;33316;52.298;9.056;2023-12-22T08:58:00;6.50;99.20
47590;DHT22;33316;52.298;9.056;2023-12-22T09:00:39;6.50;99.30
47590;DHT22;33316;52.298;9.056;2023-12-22T09:03:09;6.50;99.20
47590;DHT22;33316;52.298;9.056;2023-12-22T09:05:40;6.50;99.50
47590;DHT22;33316;52.298;9.056;2023-12-22T09:08:16;6.50;99.10
47590;DHT22;33316;52.298;9.056;2023-12-22T09:10:49;6.50;98.90
47590;DHT22;33316;52.298;9.056;2023-12-22T09:13:21;6.50;98.40
47590;DHT22;33316;52.298;9.056;2023-12-22T09:16:07;6.50;98.50
47590;DHT22;33316;52.298;9.056;2023-12-22T09:18:48;6.50;98.70
47590;DHT22;33316;52.298;9.056;2023-12-22T09:21:22;6.50;98.90
47590;DHT22;33316;52.298;9.056;2023-12-22T09:23:56;6.50;99.10
47590;DHT22;33316;52.298;9.056;2023-12-22T09:26:31;6.50;99.30
47590;DHT22;33316;52.298;9.056;2023-12-22T09:29:11;6.50;99.50
47590;DHT22;33316;52.298;9.056;2023-12-22T09:31:55;6.50;99.70
47590;DHT22;33316;52.298;9.056;2023-12-22T09:34:32;6.60;99.90
47590;DHT22;33316;52.298;9.056;2023-12-22T09:37:05;6.60;99.90
47590;DHT22;33316;52.298;9.056;2023-12-22T09:39:34;6.60;99.90
47590;DHT22;33316;52.298;9.056;2023-12-22T09:42:04;6.60;99.90
47590;DHT22;33316;52.298;9.056;2023-12-22T09:44:33;6.60;99.90
47590;DHT22;33316;52.298;9.056;2023-12-22T09:47:09;6.60;99.90
47590;DHT22;33316;52.298;9.056;2023-12-22T09:49:41;6.60;99.90
47590;DHT22;33316;52.298;9.056;2023-12-22T09:52:11;6.60;99.90
47590;DHT22;33316;52.298;9.056;2023-12-22T09:54:42;6.60;99.90
47590;DHT22;33316;52.298;9.056;2023-12-22T09:57:13;6.70;99.90
47590;DHT22;33316;52.298;9.056;2023-12-22T09:59:45;6.70;99.90
47590;DHT22;33316;52.298;9.056;2023-12-22T10:02:16;6.70;99.90
47590;DHT22;33316;52.298;9.056;2023-12-22T10:04:47;6.70;99.90
47590;DHT22;33316;52.298;9.056;2023-12-22T10:07:21;6.70;99.90
47590;DHT22;33316;52.298;9.056;2023-12-22T10:10:06;6.70;99.90
47590;DHT22;33316;52.298;9.056;2023-12-22T10:12:44;6.80;99.90
47590;DHT22;33316;52.298;9.056;2023-12-22T10:15:13;6.80;99.90
47590;DHT22;33316;52.298;9.056;2023-12-22T10:17:51;6.80;99.90
47590;DHT22;33316;52.298;9.056;2023-12-22T10:20:24;6.80;99.90
47590;DHT22;33316;52.298;9.056;2023-12-22T10:22:57;6.80;99.90
47590;DHT22;33316;52.298;9.056;2023-12-22T10:25:29;6.90;99.90
47590;DHT22;33316;52.298;9.056;2023-12-22T10:28:01;6.90;99.90
47590;DHT22;33316;52.298;9.056;2023-12-22T10:30:32;6.90;99.90
47590;DHT22;33316;52.298;9.056;2023-12-22T10:33:09;6.90;99.90
47590;DHT22;33316;52.298;9.056;2023-12-22T10:35:42;7.00;99.90
47590;DHT22;33316;52.298;9.056;2023-12-22T10:38:13;7.00;99.90
47590;DHT22;33316;52.298;9.056;2023-12-22T10:40:45;7.00;99.90
47590;DHT22;33316;52.298;9.056;2023-12-22T10:43:20;7.00;99.90
47590;DHT22;33316;52.298;9.056;2023-12-22T10:45:53;7.00;99.90
47590;DHT22;33316;52.298;9.056;2023-12-22T10:48:31;7.00;99.90
47590;DHT22;33316;52.298;9.056;2023-12-22T10:50:59;7.00;99.90
47590;DHT22;33316;52.298;9.056;2023-12-22T10:53:27;7.10;99.90
47590;DHT22;33316;52.298;9.056;2023-12-22T10:56:00;7.10;99.90
47590;DHT22;33316;52.298;9.056;2023-12-22T10:58:33;7.10;99.90
47590;DHT22;33316;52.298;9.056;2023-12-22T11:01:06;7.10;99.90
47590;DHT22;33316;52.298;9.056;2023-12-22T11:03:45;7.10;99.90
47590;DHT22;33316;52.298;9.056;2023-12-22T11:06:20;7.20;99.90
47590;DHT22;33316;52.298;9.056;2023-12-22T11:09:02;7.20;99.90
47590;DHT22;33316;52.298;9.056;2023-12-22T11:11:35;7.20;99.90
47590;DHT22;33316;52.298;9.056;2023-12-22T11:14:11;7.20;99.90
47590;DHT22;33316;52.298;9.056;2023-12-22T11:16:45;7.20;99.90
47590;DHT22;33316;52.298;9.056;2023-12-22T11:19:21;7.20;99.90
47590;DHT22;33316;52.298;9.056;2023-12-22T11:21:58;7.30;99.90
47590;DHT22;33316;52.298;9.056;2023-12-22T11:24:32;7.30;99.90
47590;DHT22;33316;52.298;9.056;2023-12-22T11:27:03;7.30;99.90
47590;DHT22;33316;52.298;9.056;2023-12-22T11:29:33;7.30;99.90
47590;DHT22;33316;52.298;9.056;2023-12-22T11:32:07;7.30;99.90
47590;DHT22;33316;52.298;9.056;2023-12-22T11:34:42;7.30;99.90
47590;DHT22;33316;52.298;9.056;2023-12-22T11:37:16;7.30;99.90
47590;DHT22;33316;52.298;9.056;2023-12-22T11:39:45;7.30;99.90
47590;DHT22;33316;52.298;9.056;2023-12-22T11:42:18;7.30;99.90
47590;DHT22;33316;52.298;9.056;2023-12-22T11:44:48;7.30;99.90
47590;DHT22;33316;52.298;9.056;2023-12-22T11:47:22;7.30;99.90
47590;DHT22;33316;52.298;9.056;2023-12-22T11:49:55;7.30;99.90
47590;DHT22;33316;52.298;9.056;2023-12-22T11:52:27;7.40;99.90
47590;DHT22;33316;52.298;9.056;2023-12-22T11:55:01;7.40;99.90
47590;DHT22;33316;52.298;9.056;2023-12-22T11:57:31;7.40;99.90
47590;DHT22;33316;52.298;9.056;2023-12-22T12:00:03;7.40;99.90
47590;DHT22;33316;52.298;9.056;2023-12-22T12:02:42;7.40;99.90
47590;DHT22;33316;52.298;9.056;2023-12-22T12:05:16;7.40;99.90
47590;DHT22;33316;52.298;9.056;2023-12-22T12:07:48;7.40;99.90
47590;DHT22;33316;52.298;9.056;2023-12-22T12:10:51;7.40;99.90
47590;DHT22;33316;52.298;9.056;2023-12-22T12:13:26;7.40;99.90
47590;DHT22;33316;52.298;9.056;2023-12-22T12:15:58;7.50;99.90
47590;DHT22;33316;52.298;9.056;2023-12-22T12:18:30;7.50;99.90
47590;DHT22;33316;52.298;9.056;2023-12-22T12:21:05;7.50;99.90
47590;DHT22;33316;52.298;9.056;2023-12-22T12:23:37;7.50;99.90
47590;DHT22;33316;52.298;9.056;2023-12-22T12:26:06;7.50;99.90
47590;DHT22;33316;52.298;9.056;2023-12-22T12:28:38;7.50;99.90
47590;DHT22;33316;52.298;9.056;2023-12-22T12:31:15;7.50;99.90
47590;DHT22;33316;52.298;9.056;2023-12-22T12:33:50;7.50;99.90
47590;DHT22;33316;52.298;9.056;2023-12-22T12:36:27;7.50;99.90
47590;DHT22;33316;52.298;9.056;2023-12-22T12:39:06;7.50;99.90
47590;DHT22;33316;52.298;9.056;2023-12-22T12:41:40;7.50;99.90
47590;DHT22;33316;52.298;9.056;2023-12-22T12:44:17;7.50;99.90
47590;DHT22;33316;52.298;9.056;2023-12-22T12:46:53;7.50;99.90
47590;DHT22;33316;52.298;9.056;2023-12-22T12:49:22;7.50;99.90
47590;DHT22;33316;52.298;9.056;2023-12-22T12:51:58;7.50;99.90
47590;DHT22;33316;52.298;9.056;2023-12-22T12:54:34;7.50;99.90
47590;DHT22;33316;52.298;9.056;2023-12-22T12:57:04;7.50;99.90
47590;DHT22;33316;52.298;9.056;2023-12-22T12:59:34;7.50;99.90
47590;DHT22;33316;52.298;9.056;2023-12-22T13:02:03;7.60;99.90
47590;DHT22;33316;52.298;9.056;2023-12-22T13:04:38;7.50;99.90
47590;DHT22;33316;52.298;9.056;2023-12-22T13:07:12;7.50;99.90
47590;DHT22;33316;52.298;9.056;2023-12-22T13:09:45;7.60;99.90
47590;DHT22;33316;52.298;9.056;2023-12-22T13:12:26;7.60;99.90
47590;DHT22;33316;52.298;9.056;2023-12-22T13:15:11;7.60;99.90
47590;DHT22;33316;52.298;9.056;2023-12-22T13:17:43;7.60;99.90
47590;DHT22;33316;52.298;9.056;2023-12-22T13:20:13;7.60;99.90
47590;DHT22;33316;52.298;9.056;2023-12-22T13:22:49;7.60;99.90
47590;DHT22;33316;52.298;9.056;2023-12-22T13:25:38;7.60;99.90
47590;DHT22;33316;52.298;9.056;2023-12-22T13:28:15;7.60;99.90
47590;DHT22;33316;52.298;9.056;2023-12-22T13:31:09;7.60;99.90
47590;DHT22;33316;52.298;9.056;2023-12-22T13:34:00;7.60;99.90
47590;DHT22;33316;52.298;9.056;2023-12-22T13:36:33;7.60;99.90
47590;DHT22;33316;52.298;9.056;2023-12-22T13:39:09;7.60;99.90
47590;DHT22;33316;52.298;9.056;2023-12-22T13:41:40;7.60;99.90
47590;DHT22;33316;52.298;9.056;2023-12-22T13:44:13;7.60;99.90
47590;DHT22;33316;52.298;9.056;2023-12-22T13:46:53;7.60;99.90
47590;DHT22;33316;52.298;9.056;2023-12-22T13:49:32;7.60;99.90
47590;DHT22;33316;52.298;9.056;2023-12-22T13:52:03;7.60;99.90
47590;DHT22;33316;52.298;9.056;2023-12-22T13:54:37;7.50;99.90
47590;DHT22;33316;52.298;9.056;2023-12-22T13:57:24;7.60;99.90
47590;DHT22;33316;52.298;9.056;2023-12-22T14:00:06;7.60;99.90
47590;DHT22;33316;52.298;9.056;2023-12-22T14:02:57;7.50;99.90
47590;DHT22;33316;52.298;9.056;2023-12-22T14:05:33;7.60;99.90
47590;DHT22;33316;52.298;9.056;2023-12-22T14:08:04;7.60;99.90
47590;DHT22;33316;52.298;9.056;2023-12-22T14:10:35;7.60;99.90
47590;DHT22;33316;52.298;9.056;2023-12-22T14:13:08;7.60;99.90
47590;DHT22;33316;52.298;9.056;2023-12-22T14:15:44;7.60;99.90
47590;DHT22;33316;52.298;9.056;2023-12-22T14:18:15;7.60;99.90
47590;DHT22;33316;52.298;9.056;2023-12-22T14:20:46;7.60;99.90
47590;DHT22;33316;52.298;9.056;2023-12-22T14:23:19;7.60;99.90
47590;DHT22;33316;52.298;9.056;2023-12-22T14:25:54;7.60;99.90
47590;DHT22;33316;52.298;9.056;2023-12-22T14:28:28;7.60;99.90
47590;DHT22;33316;52.298;9.056;2023-12-22T14:31:00;7.60;99.90
47590;DHT22;33316;52.298;9.056;2023-12-22T14:33:29;7.60;99.90
47590;DHT22;33316;52.298;9.056;2023-12-22T14:36:01;7.60;99.90
47590;DHT22;33316;52.298;9.056;2023-12-22T14:38:40;7.60;99.90
47590;DHT22;33316;52.298;9.056;2023-12-22T14:41:22;7.50;99.90
47590;DHT22;33316;52.298;9.056;2023-12-22T14:43:55;7.60;99.90
47590;DHT22;33316;52.298;9.056;2023-12-22T14:46:29;7.60;99.90
47590;DHT22;33316;52.298;9.056;2023-12-22T14:49:01;7.60;99.90
47590;DHT22;33316;52.298;9.056;2023-12-22T14:51:36;7.60;99.90
47590;DHT22;33316;52.298;9.056;2023-12-22T14:54:07;7.60;99.90
47590;DHT22;33316;52.298;9.056;2023-12-22T14:56:42;7.60;99.90
47590;DHT22;33316;52.298;9.056;2023-12-22T14:59:24;7.50;99.90
47590;DHT22;33316;52.298;9.056;2023-12-22T15:01:55;7.50;99.90
47590;DHT22;33316;52.298;9.056;2023-12-22T15:04:24;7.60;99.90
47590;DHT22;33316;52.298;9.056;2023-12-22T15:06:54;7.50;99.90
47590;DHT22;33316;52.298;9.056;2023-12-22T15:09:24;7.60;99.90
47590;DHT22;33316;52.298;9.056;2023-12-22T15:12:03;7.50;99.90
47590;DHT22;33316;52.298;9.056;2023-12-22T15:14:33;7.50;99.90
47590;DHT22;33316;52.298;9.056;2023-12-22T15:17:04;7.50;99.90
47590;DHT22;33316;52.298;9.056;2023-12-22T15:19:40;7.50;99.90
47590;DHT22;33316;52.298;9.056;2023-12-22T15:22:14;7.50;99.90
47590;DHT22;33316;52.298;9.056;2023-12-22T15:24:49;7.50;99.90
47590;DHT22;33316;52.298;9.056;2023-12-22T15:27:29;7.60;99.90
47590;DHT22;33316;52.298;9.056;2023-12-22T15:30:01;7.60;99.90
47590;DHT22;33316;52.298;9.056;2023-12-22T15:32:30;7.50;99.90
47590;DHT22;33316;52.298;9.056;2023-12-22T15:35:02;7.60;99.90
47590;DHT22;33316;52.298;9.056;2023-12-22T15:37:35;7.60;99.90
47590;DHT22;33316;52.298;9.056;2023-12-22T15:40:03;7.60;99.90
47590;DHT22;33316;52.298;9.056;2023-12-22T15:42:35;7.60;99.90
47590;DHT22;33316;52.298;9.056;2023-12-22T15:45:03;7.60;99.90
47590;DHT22;33316;52.298;9.056;2023-12-22T15:47:33;7.60;99.90
47590;DHT22;33316;52.298;9.056;2023-12-22T15:50:05;7.60;99.90
47590;DHT22;33316;52.298;9.056;2023-12-22T15:52:36;7.60;99.90
47590;DHT22;33316;52.298;9.056;2023-12-22T15:55:06;7.60;99.90
47590;DHT22;33316;52.298;9.056;2023-12-22T15:57:40;7.60;99.90
47590;DHT22;33316;52.298;9.056;2023-12-22T16:00:14;7.60;99.90
47590;DHT22;33316;52.298;9.056;2023-12-22T16:02:43;7.60;99.90
47590;DHT22;33316;52.298;9.056;2023-12-22T16:05:14;7.70;99.90
47590;DHT22;33316;52.298;9.056;2023-12-22T16:07:45;7.70;99.90
47590;DHT22;33316;52.298;9.056;2023-12-22T16:10:15;7.70;99.90
47590;DHT22;33316;52.298;9.056;2023-12-22T16:12:49;7.70;99.90
47590;DHT22;33316;52.298;9.056;2023-12-22T16:15:23;7.70;99.90
47590;DHT22;33316;52.298;9.056;2023-12-22T16:18:01;7.70;99.90
47590;DHT22;33316;52.298;9.056;2023-12-22T16:20:31;7.70;99.90
47590;DHT22;33316;52.298;9.056;2023-12-22T16:23:01;7.70;99.90
47590;DHT22;33316;52.298;9.056;2023-12-22T16:25:42;7.70;99.90
47590;DHT22;33316;52.298;9.056;2023-12-22T16:28:14;7.80;99.90
47590;DHT22;33316;52.298;9.056;2023-12-22T16:30:56;7.80;99.90
47590;DHT22;33316;52.298;9.056;2023-12-22T16:33:27;7.70;99.90
47590;DHT22;33316;52.298;9.056;2023-12-22T16:35:58;7.80;99.90
47590;DHT22;33316;52.298;9.056;2023-12-22T16:38:29;7.80;99.90